KJMS

Jamestown Regional Airport

Jamestown, North Dakota, USA
KJMS 210829Z 2108/2206 VRB05KT P6SM VCFG SCT010 TEMPO 2108/2112 3SM BR BKN010 FM211500 08008KT P6SM FEW070 FM212200 13008KT P6SM FEW250
Issued Valid From Valid To
Jul-21 @ 08:29 UTC
(an hour ago)
Jul-21 @ 08:00 UTC
(2 hours ago)
Jul-22 @ 06:00 UTC
(in 20 hours)
Jul-21 @ 08:00 to Jul-21 @ 15:00
KJMS 210829Z 2108/2206 VRB05KT P6SM VCFG SCT010
Wind Visibility Clouds Conditions
Variable at 5 knots Greater than 6 miles
  • Scattered at 1,000' AGL
  • Area Fog
Temporary Jul-21 @ 08:00 to Jul-21 @ 12:00
TEMPO 2108/2112 3SM BR BKN010
Visibility Clouds Conditions
3 miles
  • Broken at 1,000' AGL
  • Mist
From Jul-21 @ 15:00 to Jul-21 @ 22:00
FM211500 08008KT P6SM FEW070
Wind Visibility Clouds
80° at 8 knots Greater than 6 miles
  • Few at 7,000' AGL
From Jul-21 @ 22:00 to Jul-22 @ 06:00
FM212200 13008KT P6SM FEW250
Wind Visibility Clouds
130° at 8 knots Greater than 6 miles
  • Few at 25,000' AGL
KJMS 210829Z 2108/2206 VRB05KT P6SM VCFG SCT010 TEMPO 2108/2112 3SM BR BKN010 FM211500 08008KT P6SM FEW070 FM212200 13008KT P6SM FEW250
Issued Jul-21 @ 08:29 UTC
(an hour ago)
Valid From Jul-21 @ 08:00 UTC
(2 hours ago)
Valid To Jul-22 @ 06:00 UTC
(in 20 hours)
Jul-21 @ 08:00 - Jul-21 @ 15:00
Wind Visibility
Variable at 5 knots Greater than 6 miles
Clouds
  • Scattered at 1,000' AGL
Conditions
  • Area Fog
Temporary Jul-21 @ 08:00 - Jul-21 @ 12:00
Clouds
  • Broken at 1,000' AGL
Conditions
  • Mist
From Jul-21 @ 15:00 - Jul-21 @ 22:00
Wind Visibility
80° at 8 knots Greater than 6 miles
Clouds
  • Few at 7,000' AGL
From Jul-21 @ 22:00 - Jul-22 @ 06:00
Wind Visibility
130° at 8 knots Greater than 6 miles
Clouds
  • Few at 25,000' AGL